Time;durP1;ratioP1;P1;durP2;ratioP2;P2;SDS_P1;SDS_P2;PMS_P1;PMS_P2;Temp;Humidity;BMP_temperature;BMP_pressure;BME280_temperature;BME280_humidity;BME280_pressure;Samples;Min_cycle;Max_cycle;Signal;HPM_P1;HPM_P2
2023/02/13 00:02:21;;;;;;;29.98;4.13;;;;;;;8.88;100.00;102806.97;5098661;28;20066;-64
2023/02/13 00:04:46;;;;;;;30.10;4.90;;;;;;;8.97;100.00;102797.22;5098338;28;20028;-65
2023/02/13 00:07:12;;;;;;;48.53;5.22;;;;;;;9.01;100.00;102799.50;5098764;28;20032;-64
2023/02/13 00:09:38;;;;;;;42.55;4.75;;;;;;;8.93;100.00;102784.06;5080125;28;20028;-64
2023/02/13 00:12:04;;;;;;;36.22;4.72;;;;;;;8.95;100.00;102802.75;5095339;28;20016;-65
2023/02/13 00:14:30;;;;;;;33.30;4.45;;;;;;;8.97;100.00;102803.44;5096319;28;20046;-65
2023/02/13 00:16:55;;;;;;;40.05;5.70;;;;;;;8.85;100.00;102794.69;5096088;28;20076;-64
2023/02/13 00:19:21;;;;;;;34.92;4.50;;;;;;;8.96;100.00;102798.22;5079364;28;20052;-64
2023/02/13 00:21:46;;;;;;;29.50;3.58;;;;;;;8.87;100.00;102791.84;5095277;28;20061;-65
2023/02/13 00:24:12;;;;;;;33.75;4.88;;;;;;;8.97;100.00;102799.91;5098939;28;20409;-64
2023/02/13 00:26:38;;;;;;;40.63;5.35;;;;;;;9.02;100.00;102803.03;5095446;28;20032;-64
2023/02/13 00:29:04;;;;;;;31.08;4.03;;;;;;;9.01;100.00;102779.88;5100396;28;20083;-64
2023/02/13 00:31:29;;;;;;;35.55;4.57;;;;;;;8.87;100.00;102783.78;5095800;28;20060;-65
2023/02/13 00:33:55;;;;;;;29.13;3.70;;;;;;;8.97;100.00;102794.53;5097081;28;20031;-64
2023/02/13 00:36:21;;;;;;;42.80;4.70;;;;;;;9.10;100.00;102790.59;5096944;28;20031;-64
2023/02/13 00:38:47;;;;;;;35.22;4.43;;;;;;;9.04;100.00;102799.25;5097161;28;20020;-65
2023/02/13 00:41:16;;;;;;;42.60;4.60;;;;;;;9.09;100.00;102799.66;5097924;28;20115;-64
2023/02/13 00:43:42;;;;;;;41.47;4.55;;;;;;;9.05;100.00;102813.50;5095660;28;20376;-64
2023/02/13 00:46:08;;;;;;;37.00;4.38;;;;;;;9.07;100.00;102811.50;5097404;28;20032;-65
2023/02/13 00:48:34;;;;;;;39.38;4.68;;;;;;;9.11;100.00;102805.75;5096702;28;20148;-65
2023/02/13 00:51:00;;;;;;;36.65;4.40;;;;;;;9.05;100.00;102808.97;5097736;28;20119;-64
2023/02/13 00:53:26;;;;;;;40.40;4.72;;;;;;;8.99;100.00;102798.78;5096362;28;20091;-64
2023/02/13 00:55:52;;;;;;;30.00;4.30;;;;;;;9.10;100.00;102801.34;5096302;28;20125;-65
2023/02/13 00:58:19;;;;;;;40.78;4.10;;;;;;;8.99;100.00;102795.25;5098813;28;20028;-65
2023/02/13 01:00:48;;;;;;;43.83;4.93;;;;;;;9.07;100.00;102800.78;5100899;28;20512;-64
2023/02/13 01:03:16;;;;;;;40.25;4.40;;;;;;;9.05;100.00;102794.72;5100903;28;20078;-65
2023/02/13 01:05:43;;;;;;;35.05;4.18;;;;;;;9.03;100.00;102802.03;5100220;28;20393;-64
2023/02/13 01:08:09;;;;;;;34.03;4.57;;;;;;;9.02;100.00;102803.03;5081957;28;20054;-65
2023/02/13 01:10:37;;;;;;;33.42;4.38;;;;;;;8.98;100.00;102791.72;5099865;28;20047;-64
2023/02/13 01:13:02;;;;;;;35.42;4.28;;;;;;;9.01;100.00;102796.81;5099402;28;20031;-65
2023/02/13 01:15:28;;;;;;;33.90;4.47;;;;;;;9.01;100.00;102791.47;5101434;28;20024;-65
2023/02/13 01:17:56;;;;;;;26.95;3.70;;;;;;;8.97;100.00;102781.97;5100511;28;20080;-64
2023/02/13 01:20:23;;;;;;;36.10;4.60;;;;;;;9.02;100.00;102786.94;5101534;28;20425;-65
2023/02/13 01:22:49;;;;;;;28.85;4.25;;;;;;;8.76;100.00;102722.19;5101516;28;20043;-64
2023/02/13 01:25:14;;;;;;;44.20;4.88;;;;;;;8.88;100.00;102743.41;5099537;28;20030;-65
2023/02/13 01:27:40;;;;;;;37.05;4.15;;;;;;;9.09;100.00;102780.00;5098943;28;20020;-65
2023/02/13 01:30:12;;;;;;;42.42;5.80;;;;;;;9.09;100.00;102766.56;5082661;28;20036;-64
2023/02/13 01:32:41;;;;;;;28.92;3.67;;;;;;;9.01;100.00;102777.19;5104309;28;20020;-64
2023/02/13 01:35:08;;;;;;;39.55;4.70;;;;;;;8.92;100.00;102782.41;5103749;28;20043;-65
2023/02/13 01:37:34;;;;;;;38.55;4.72;;;;;;;9.03;100.00;102783.25;5103792;28;20034;-64
2023/02/13 01:39:59;;;;;;;30.45;4.43;;;;;;;9.04;100.00;102788.50;5102804;28;20056;-64
2023/02/13 01:42:28;;;;;;;31.63;4.38;;;;;;;8.97;100.00;102791.84;5102612;28;20055;-64
2023/02/13 01:44:56;;;;;;;33.53;4.20;;;;;;;8.93;100.00;102776.03;5103618;28;20177;-65
2023/02/13 01:47:28;;;;;;;34.38;4.30;;;;;;;9.01;100.00;102774.50;5102186;28;20028;-65
2023/02/13 01:50:07;;;;;;;31.20;4.25;;;;;;;8.87;100.00;102767.69;5104369;28;20066;-65
2023/02/13 01:52:36;;;;;;;37.42;5.15;;;;;;;8.95;100.00;102770.53;5103868;28;20102;-64
2023/02/13 01:55:03;;;;;;;32.67;4.28;;;;;;;9.01;100.00;102769.13;5102208;28;20020;-65
2023/02/13 01:57:31;;;;;;;21.02;3.50;;;;;;;8.85;100.00;102735.63;5096730;28;20415;-65
2023/02/13 02:00:09;;;;;;;34.78;4.50;;;;;;;8.81;100.00;102722.63;5098984;28;20031;-65
2023/02/13 02:02:43;;;;;;;26.42;4.28;;;;;;;8.80;100.00;102739.69;5099485;28;20028;-64
2023/02/13 02:05:09;;;;;;;34.78;4.60;;;;;;;8.79;100.00;102738.03;5099861;28;20327;-64
2023/02/13 02:07:37;;;;;;;38.35;4.40;;;;;;;8.96;100.00;102758.78;5098155;28;20083;-65
2023/02/13 02:10:13;;;;;;;33.33;4.85;;;;;;;8.93;100.00;102757.22;5082430;28;20068;-65
2023/02/13 02:12:45;;;;;;;41.75;4.78;;;;;;;8.92;100.00;102758.22;5098290;28;20027;-68
2023/02/13 02:15:11;;;;;;;34.50;4.18;;;;;;;8.90;100.00;102754.81;5097973;28;20024;-64
2023/02/13 02:17:36;;;;;;;29.73;4.68;;;;;;;8.93;100.00;102761.75;5099852;28;20036;-64
2023/02/13 02:20:05;;;;;;;24.90;2.85;;;;;;;8.90;100.00;102768.25;5098823;28;20047;-64
2023/02/13 02:22:49;;;;;;;27.55;4.75;;;;;;;9.02;100.00;102762.75;5099218;28;20016;-64
2023/02/13 02:25:52;;;;;;;33.28;4.60;;;;;;;8.85;100.00;102764.31;5099662;28;20039;-64
2023/02/13 02:28:44;;;;;;;33.70;5.38;;;;;;;9.04;100.00;102768.81;5099849;28;20034;-64
2023/02/13 02:31:13;;;;;;;35.47;4.30;;;;;;;9.02;100.00;102768.97;5106514;28;20348;-65
2023/02/13 02:33:53;;;;;;;29.27;4.28;;;;;;;8.96;100.00;102764.16;5105290;28;20134;-65
2023/02/13 02:36:45;;;;;;;31.42;4.55;;;;;;;9.05;100.00;102766.00;5104138;28;20030;-64
2023/02/13 02:39:23;;;;;;;31.10;5.13;;;;;;;9.07;100.00;102765.84;5088193;28;20032;-65
2023/02/13 02:42:12;;;;;;;30.17;4.80;;;;;;;9.16;100.00;102763.16;5101620;28;20024;-66
2023/02/13 02:44:49;;;;;;;26.95;4.18;;;;;;;9.08;100.00;102762.19;5117352;28;20036;-65
2023/02/13 02:50:35;;;;;;;36.47;4.95;;;;;;;8.96;100.00;102761.47;5103842;28;20528;-64
2023/02/13 02:53:11;;;;;;;31.48;4.70;;;;;;;9.00;100.00;102759.34;5101471;28;20054;-64
2023/02/13 02:55:40;;;;;;;31.88;4.70;;;;;;;9.05;100.00;102771.38;5102511;28;20155;-65
2023/02/13 03:06:50;;;;;;;33.35;4.88;;;;;;;8.92;100.00;102766.28;5103387;28;20088;-64
2023/02/13 03:14:57;;;;;;;40.28;5.75;;;;;;;8.64;100.00;102746.50;5102872;28;20074;-64
2023/02/13 03:23:35;;;;;;;32.17;4.80;;;;;;;8.93;100.00;102765.28;5101735;28;20168;-64
2023/02/13 03:26:31;;;;;;;33.95;5.07;;;;;;;8.90;100.00;102762.03;5100839;28;20031;-64
2023/02/13 03:32:25;;;;;;;33.75;4.45;;;;;;;8.97;100.00;102762.31;5102424;28;20078;-64
2023/02/13 03:38:28;;;;;;;40.83;6.82;;;;;;;8.99;100.00;102760.34;5100805;28;20414;-68
2023/02/13 03:41:18;;;;;;;33.65;4.63;;;;;;;8.86;100.00;102758.78;5098146;28;20087;-65
2023/02/13 03:44:08;;;;;;;27.35;3.92;;;;;;;8.86;100.00;102758.78;5101815;28;20016;-64
2023/02/13 03:46:39;;;;;;;31.42;5.25;;;;;;;8.89;100.00;102750.44;5102230;28;20038;-65
2023/02/13 03:52:00;;;;;;;31.00;4.75;;;;;;;8.92;100.00;102755.53;5102849;28;20062;-65
2023/02/13 04:00:10;;;;;;;34.40;4.22;;;;;;;8.76;100.00;102751.72;5102662;28;19907;-65
2023/02/13 04:02:44;;;;;;;32.17;4.43;;;;;;;8.80;100.00;102739.69;5103216;28;20074;-65
2023/02/13 04:05:17;;;;;;;44.22;5.28;;;;;;;8.91;100.00;102759.22;5102273;28;20035;-64
2023/02/13 04:07:43;;;;;;;33.43;5.10;;;;;;;8.84;100.00;102758.09;5102110;28;20502;-64
2023/02/13 04:10:15;;;;;;;33.92;5.38;;;;;;;8.83;100.00;102767.13;5103996;28;20016;-65
2023/02/13 04:12:54;;;;;;;27.77;4.18;;;;;;;8.94;100.00;102768.84;5110565;28;20039;-66
2023/02/13 04:15:28;;;;;;;28.88;5.10;;;;;;;8.78;100.00;102753.28;5111315;28;20044;-64
2023/02/13 04:18:04;;;;;;;28.90;4.25;;;;;;;8.86;100.00;102757.94;5110731;28;20104;-65
2023/02/13 04:20:33;;;;;;;40.80;4.80;;;;;;;8.88;100.00;102762.19;5110352;28;20448;-65
2023/02/13 04:23:05;;;;;;;27.95;5.18;;;;;;;8.75;100.00;102761.63;5101802;28;20032;-64
2023/02/13 04:25:31;;;;;;;33.90;4.80;;;;;;;8.85;100.00;102780.41;5101471;28;20031;-65
2023/02/13 04:27:56;;;;;;;35.35;5.55;;;;;;;8.89;100.00;102776.47;5101848;28;20020;-65
2023/02/13 04:30:22;;;;;;;37.55;5.47;;;;;;;8.88;100.00;102782.81;5101143;28;20036;-64
2023/02/13 04:32:47;;;;;;;40.03;5.75;;;;;;;8.83;100.00;102775.16;5101300;28;20035;-65
2023/02/13 04:35:13;;;;;;;35.65;4.97;;;;;;;8.82;100.00;102770.81;5101848;28;20051;-68
2023/02/13 04:37:39;;;;;;;34.05;5.10;;;;;;;8.90;100.00;102773.63;5104460;28;20054;-65
2023/02/13 04:40:05;;;;;;;36.80;5.20;;;;;;;8.79;100.00;102770.22;5103105;28;20101;-64
2023/02/13 04:42:30;;;;;;;36.65;5.18;;;;;;;8.81;100.00;102771.78;5100953;28;20115;-65
2023/02/13 04:44:55;;;;;;;31.17;4.65;;;;;;;8.78;100.00;102774.75;5097643;28;20028;-65
2023/02/13 04:47:21;;;;;;;40.63;5.25;;;;;;;8.77;100.00;102778.41;5100826;28;20119;-65
2023/02/13 04:49:46;;;;;;;36.25;4.18;;;;;;;8.64;100.00;102773.31;5101567;28;20537;-65
2023/02/13 04:52:14;;;;;;;37.00;5.88;;;;;;;8.61;100.00;102767.34;5100236;28;20048;-65
2023/02/13 04:54:39;;;;;;;35.20;5.15;;;;;;;8.78;100.00;102776.59;5100964;28;20567;-65
2023/02/13 04:57:05;;;;;;;45.65;6.30;;;;;;;8.74;100.00;102767.97;5099873;28;20144;-65
2023/02/13 04:59:30;;;;;;;39.22;4.85;;;;;;;8.73;100.00;102762.72;5098724;28;20025;-65
2023/02/13 05:01:56;;;;;;;37.17;5.35;;;;;;;8.78;100.00;102764.03;5100884;28;20020;-65
2023/02/13 05:04:21;;;;;;;32.35;4.80;;;;;;;8.81;100.00;102752.16;5099705;28;20032;-68
2023/02/13 05:06:46;;;;;;;33.70;5.40;;;;;;;8.84;100.00;102755.41;5100242;28;20028;-69
2023/02/13 05:09:12;;;;;;;38.47;5.40;;;;;;;8.76;100.00;102744.50;5102233;28;20032;-68
2023/02/13 05:11:37;;;;;;;40.13;5.40;;;;;;;8.70;100.00;102764.69;5105389;28;20031;-66
2023/02/13 05:14:03;;;;;;;37.83;4.97;;;;;;;8.74;100.00;102753.69;5102389;28;20036;-68
2023/02/13 05:16:28;;;;;;;31.02;5.20;;;;;;;8.55;100.00;102736.56;5103067;28;20078;-68
2023/02/13 05:18:53;;;;;;;33.40;4.40;;;;;;;8.75;100.00;102761.63;5086452;28;20020;-67
2023/02/13 05:24:04;;;;;;;35.47;4.70;;;;;;;8.73;100.00;102760.88;5102209;28;20043;-67
2023/02/13 05:26:29;;;;;;;31.67;5.05;;;;;;;8.67;100.00;102761.44;5098813;28;20036;-67
2023/02/13 05:31:39;;;;;;;35.72;5.20;;;;;;;8.74;100.00;102767.97;5100294;28;20035;-67
2023/02/13 05:34:04;;;;;;;30.80;5.00;;;;;;;8.70;100.00;102766.53;5098167;28;20036;-66
2023/02/13 05:36:29;;;;;;;39.30;5.43;;;;;;;8.49;100.00;102747.84;5097601;28;20118;-67
2023/02/13 05:38:55;;;;;;;37.28;5.25;;;;;;;8.57;100.00;102763.25;5097271;28;20084;-67
2023/02/13 05:41:20;;;;;;;44.53;5.75;;;;;;;8.36;100.00;102718.56;5098037;28;20020;-67
2023/02/13 05:43:46;;;;;;;32.85;5.55;;;;;;;8.69;100.00;102776.41;5099173;28;20035;-67
2023/02/13 05:46:11;;;;;;;36.03;4.85;;;;;;;8.73;100.00;102774.31;5098115;28;20027;-67
2023/02/13 05:48:36;;;;;;;39.50;5.60;;;;;;;8.66;100.00;102767.81;5099999;28;20394;-67
2023/02/13 05:51:02;;;;;;;34.83;4.97;;;;;;;8.74;100.00;102781.41;5080845;28;20036;-68
2023/02/13 05:53:28;;;;;;;31.38;5.75;;;;;;;8.64;100.00;102785.88;5103440;28;20034;-67
2023/02/13 05:55:54;;;;;;;39.15;4.85;;;;;;;8.58;100.00;102791.81;5103285;28;20417;-68
2023/02/13 05:58:20;;;;;;;28.85;4.45;;;;;;;8.61;100.00;102800.44;5103268;28;20043;-67
2023/02/13 06:00:47;;;;;;;33.00;4.82;;;;;;;8.66;100.00;102800.84;5102596;28;20038;-67
2023/02/13 06:03:12;;;;;;;35.97;4.70;;;;;;;8.58;100.00;102795.34;5103641;28;20173;-67
2023/02/13 06:05:38;;;;;;;29.75;4.13;;;;;;;8.62;100.00;102801.28;5100641;28;20088;-67
2023/02/13 06:08:04;;;;;;;33.35;4.88;;;;;;;8.60;100.00;102797.88;5101513;28;20016;-67
2023/02/13 06:10:29;;;;;;;45.55;4.95;;;;;;;8.54;100.00;102793.88;5101077;28;20094;-68
2023/02/13 06:12:54;;;;;;;33.58;5.28;;;;;;;8.62;100.00;102796.75;5102943;28;20046;-68
2023/02/13 06:15:20;;;;;;;25.70;4.03;;;;;;;8.61;100.00;102807.59;5101602;28;20035;-68
2023/02/13 06:17:45;;;;;;;32.17;4.22;;;;;;;8.66;100.00;102818.78;5100661;28;20040;-68
2023/02/13 06:20:11;;;;;;;36.33;4.80;;;;;;;8.60;100.00;102811.28;5098546;28;20159;-67
2023/02/13 06:22:36;;;;;;;39.40;4.70;;;;;;;8.59;100.00;102815.81;5099785;28;20048;-67
2023/02/13 06:25:04;;;;;;;36.40;4.47;;;;;;;8.59;100.00;102810.44;5099170;28;20100;-68
2023/02/13 06:27:29;;;;;;;46.47;5.15;;;;;;;8.54;100.00;102812.66;5104116;28;20028;-68
2023/02/13 06:29:54;;;;;;;30.27;4.28;;;;;;;8.52;100.00;102817.34;5101962;28;20157;-69
2023/02/13 06:32:20;;;;;;;39.03;5.53;;;;;;;8.53;100.00;102818.19;5100195;28;20036;-68
2023/02/13 06:34:45;;;;;;;43.95;5.65;;;;;;;8.47;100.00;102831.16;5103459;28;20028;-69
2023/02/13 06:37:11;;;;;;;42.85;5.38;;;;;;;8.46;100.00;102829.47;5102488;28;20032;-68
2023/02/13 06:39:36;;;;;;;41.75;5.05;;;;;;;8.56;100.00;102832.19;5086081;28;20028;-68
2023/02/13 06:42:01;;;;;;;37.13;4.82;;;;;;;8.47;100.00;102823.09;5102473;28;20096;-68
2023/02/13 06:44:27;;;;;;;37.30;4.88;;;;;;;8.44;100.00;102828.75;5100492;28;20122;-68
2023/02/13 06:46:52;;;;;;;32.17;5.20;;;;;;;8.45;100.00;102833.13;5101247;28;20032;-68
2023/02/13 06:49:18;;;;;;;28.05;3.88;;;;;;;8.43;100.00;102826.19;5102490;28;20110;-68
2023/02/13 06:51:44;;;;;;;42.03;5.60;;;;;;;8.52;100.00;102828.06;5099822;28;20127;-68
2023/02/13 06:54:09;;;;;;;29.30;4.35;;;;;;;8.43;100.00;102824.38;5083274;28;20075;-68
2023/02/13 06:56:35;;;;;;;34.60;5.15;;;;;;;8.49;100.00;102828.34;5097434;28;20028;-68
2023/02/13 06:59:00;;;;;;;32.88;4.35;;;;;;;8.53;100.00;102820.88;5097487;28;20035;-68
2023/02/13 07:01:26;;;;;;;37.22;5.20;;;;;;;8.62;100.00;102831.63;5096764;28;20038;-68
2023/02/13 07:03:51;;;;;;;33.92;5.00;;;;;;;8.71;100.00;102811.19;5096540;28;20028;-66
2023/02/13 07:06:18;;;;;;;26.50;4.45;;;;;;;8.54;100.00;102810.00;5097769;28;20050;-67
2023/02/13 07:08:43;;;;;;;36.30;4.40;;;;;;;8.60;100.00;102816.66;5096747;28;20035;-68
2023/02/13 07:11:17;;;;;;;30.52;5.25;;;;;;;8.63;100.00;102817.22;5096977;28;20028;-68
2023/02/13 07:13:42;;;;;;;45.22;4.78;;;;;;;8.68;100.00;102827.56;5099108;28;20452;-68
2023/02/13 07:16:07;;;;;;;34.42;4.45;;;;;;;8.66;100.00;102830.38;5098937;28;20032;-68
2023/02/13 07:18:33;;;;;;;29.30;4.15;;;;;;;8.58;100.00;102824.84;5081580;28;20089;-67
2023/02/13 07:20:58;;;;;;;24.17;3.80;;;;;;;8.58;100.00;102827.53;5098565;28;20130;-67
2023/02/13 07:23:24;;;;;;;34.83;4.65;;;;;;;8.59;100.00;102823.84;5100397;28;20145;-67
2023/02/13 07:25:49;;;;;;;33.35;4.47;;;;;;;8.58;100.00;102830.22;5096403;28;20089;-68
2023/02/13 07:28:15;;;;;;;27.08;4.32;;;;;;;8.73;100.00;102830.69;5097818;28;20023;-68
2023/02/13 07:30:40;;;;;;;26.55;3.97;;;;;;;8.61;100.00;102842.50;5078236;28;20028;-68
2023/02/13 07:33:05;;;;;;;29.38;4.43;;;;;;;8.57;100.00;102811.56;5095325;28;20071;-68
2023/02/13 07:35:32;;;;;;;23.17;3.95;;;;;;;8.70;100.00;102820.22;5095482;28;20108;-68
2023/02/13 07:37:59;;;;;;;32.33;3.70;;;;;;;8.76;100.00;102813.44;5096601;28;20035;-68
2023/02/13 07:40:24;;;;;;;31.13;3.42;;;;;;;8.66;100.00;102818.78;5097181;28;20062;-67
2023/02/13 07:42:50;;;;;;;32.80;4.85;;;;;;;8.73;100.00;102808.34;5080970;28;20031;-68
2023/02/13 07:45:15;;;;;;;28.88;3.90;;;;;;;8.74;100.00;102812.72;5097686;28;20478;-67
2023/02/13 07:47:41;;;;;;;27.25;3.60;;;;;;;8.81;100.00;102805.84;5102166;28;20165;-68
2023/02/13 07:50:08;;;;;;;27.05;3.35;;;;;;;8.83;100.00;102799.31;5098424;28;20115;-68
2023/02/13 07:52:36;;;;;;;28.55;3.97;;;;;;;8.78;100.00;102808.81;5101193;28;20055;-67
2023/02/13 07:55:02;;;;;;;33.30;4.03;;;;;;;8.80;100.00;102818.41;5101921;28;20036;-67
2023/02/13 07:57:27;;;;;;;28.00;4.50;;;;;;;8.75;100.00;102817.97;5102496;28;20056;-67
2023/02/13 07:59:53;;;;;;;21.52;3.17;;;;;;;8.76;100.00;102825.03;5066602;28;20024;-68
2023/02/13 08:02:18;;;;;;;27.13;3.92;;;;;;;8.66;100.00;102829.53;5102291;28;20431;-68
2023/02/13 08:04:46;;;;;;;32.38;4.72;;;;;;;8.82;100.00;102845.13;5101632;28;20028;-68
2023/02/13 08:07:16;;;;;;;27.45;4.20;;;;;;;8.72;100.00;102854.97;5101800;28;20080;-67
2023/02/13 08:12:28;;;;;;;29.52;4.70;;;;;;;8.49;100.00;102843.59;5101740;28;20449;-68
2023/02/13 08:14:53;;;;;;;23.63;4.15;;;;;;;8.62;100.00;102873.72;5099689;28;20096;-68
2023/02/13 08:17:18;;;;;;;37.40;5.20;;;;;;;8.64;100.00;102879.78;5100010;28;20071;-68
2023/02/13 08:19:44;;;;;;;32.38;4.40;;;;;;;8.62;100.00;102898.72;5100129;28;20056;-68
2023/02/13 08:22:09;;;;;;;29.48;4.43;;;;;;;8.60;100.00;102894.47;5100402;28;20111;-68
2023/02/13 08:24:35;;;;;;;25.75;3.80;;;;;;;8.71;100.00;102886.34;5101684;28;20052;-68
2023/02/13 08:27:00;;;;;;;25.95;4.22;;;;;;;8.74;100.00;102888.75;5079652;28;20499;-68
2023/02/13 08:29:26;;;;;;;27.75;4.40;;;;;;;8.68;100.00;102887.47;5098303;28;20462;-68
2023/02/13 08:31:51;;;;;;;33.42;4.72;;;;;;;8.72;100.00;102896.09;5096790;28;20031;-68
2023/02/13 08:34:17;;;;;;;33.83;4.85;;;;;;;8.57;100.00;102913.53;5097643;28;20039;-67
2023/02/13 08:36:42;;;;;;;31.60;4.43;;;;;;;8.81;100.00;102929.34;5099247;28;20060;-67
2023/02/13 08:39:10;;;;;;;30.20;4.13;;;;;;;8.82;100.00;102936.38;5064811;28;20055;-68
2023/02/13 08:41:36;;;;;;;33.88;4.97;;;;;;;8.54;100.00;102937.94;5096639;28;20099;-68
2023/02/13 08:44:01;;;;;;;25.80;3.92;;;;;;;8.79;100.00;102923.25;5095839;28;20079;-68
2023/02/13 08:46:27;;;;;;;31.20;4.38;;;;;;;8.63;100.00;102916.53;5078956;28;20032;-67
2023/02/13 08:48:53;;;;;;;35.58;4.13;;;;;;;8.55;100.00;102892.22;5094946;28;20028;-68
2023/02/13 08:51:19;;;;;;;35.10;4.47;;;;;;;8.84;99.33;102929.91;5096165;28;20050;-67
2023/02/13 08:53:44;;;;;;;35.05;4.65;;;;;;;8.97;99.11;102944.91;5097018;28;20032;-69
2023/02/13 08:56:10;;;;;;;29.77;4.18;;;;;;;9.02;98.38;102940.84;5098797;28;20092;-68
2023/02/13 08:58:36;;;;;;;39.90;4.65;;;;;;;9.08;98.84;102939.44;5097964;28;20035;-68
2023/02/13 09:01:05;;;;;;;33.60;4.60;;;;;;;9.16;98.03;102935.06;5098193;28;20482;-68
2023/02/13 09:03:31;;;;;;;31.60;4.20;;;;;;;9.28;97.64;102930.44;5097119;28;20035;-67
2023/02/13 09:06:00;;;;;;;30.63;4.65;;;;;;;9.24;98.57;102934.41;5097159;28;20028;-67
2023/02/13 09:08:27;;;;;;;32.10;4.53;;;;;;;9.20;98.31;102948.22;5097405;28;20024;-67
2023/02/13 09:11:01;;;;;;;26.98;4.35;;;;;;;9.23;98.74;102935.38;5096540;28;20054;-68
2023/02/13 09:13:29;;;;;;;29.98;4.30;;;;;;;9.24;98.52;102937.09;5097209;28;20366;-68
2023/02/13 09:15:58;;;;;;;32.40;4.22;;;;;;;9.09;98.78;102927.72;5098081;28;20047;-67
2023/02/13 09:18:24;;;;;;;41.60;5.13;;;;;;;9.11;99.29;102942.72;5096539;28;20052;-68
2023/02/13 09:20:49;;;;;;;40.40;4.75;;;;;;;9.14;99.69;102937.06;5096136;28;20051;-68
2023/02/13 09:23:15;;;;;;;30.00;4.85;;;;;;;9.19;99.38;102936.63;5095852;28;20533;-68
2023/02/13 09:25:40;;;;;;;34.78;4.65;;;;;;;9.28;98.36;102917.00;5094349;28;20121;-67
2023/02/13 09:28:06;;;;;;;31.48;4.25;;;;;;;9.44;98.32;102924.53;5076631;28;20169;-67
2023/02/13 09:30:31;;;;;;;29.80;4.80;;;;;;;9.40;98.45;102905.16;5095261;28;20055;-67
2023/02/13 09:32:56;;;;;;;33.15;4.03;;;;;;;9.43;98.57;102908.53;5095448;28;20115;-68
2023/02/13 09:35:23;;;;;;;25.58;4.60;;;;;;;9.52;98.79;102913.09;5094735;28;20043;-68
2023/02/13 09:37:48;;;;;;;30.38;4.88;;;;;;;9.54;98.98;102916.50;5093548;28;20093;-67
2023/02/13 09:40:25;;;;;;;38.22;4.80;;;;;;;9.46;99.93;102910.94;5095053;28;20471;-68
2023/02/13 09:42:52;;;;;;;33.15;4.32;;;;;;;9.45;99.60;102920.00;5096408;28;20016;-68
2023/02/13 09:45:20;;;;;;;24.60;4.00;;;;;;;9.51;98.88;102919.47;5077787;28;20062;-68
2023/02/13 09:47:47;;;;;;;32.92;4.40;;;;;;;9.52;98.83;102915.78;5095482;28;20024;-68
2023/02/13 09:50:29;;;;;;;29.90;4.10;;;;;;;9.67;98.24;102905.44;5096910;28;20024;-68
2023/02/13 09:52:57;;;;;;;27.38;3.75;;;;;;;9.77;97.25;102925.13;5098654;28;20031;-68
2023/02/13 09:55:51;;;;;;;29.65;4.20;;;;;;;9.77;97.02;102927.81;5098821;28;20060;-67
2023/02/13 09:58:39;;;;;;;29.27;3.67;;;;;;;9.87;97.15;102924.13;5098292;28;20032;-68
2023/02/13 10:01:27;;;;;;;32.45;4.45;;;;;;;9.88;96.54;102915.06;5099843;28;20429;-67
2023/02/13 10:04:30;;;;;;;26.50;4.07;;;;;;;9.94;96.94;102937.84;5099173;28;20040;-68
2023/02/13 10:07:20;;;;;;;27.98;4.10;;;;;;;9.93;96.64;102933.44;5086872;28;20085;-67
2023/02/13 10:09:54;;;;;;;23.02;3.70;;;;;;;10.00;96.32;102939.09;5099264;28;20024;-68
2023/02/13 10:12:28;;;;;;;22.67;3.57;;;;;;;10.02;95.92;102943.34;5098154;28;20024;-68
2023/02/13 10:15:14;;;;;;;20.45;3.35;;;;;;;10.02;95.91;102953.25;5099353;28;20477;-67
2023/02/13 10:17:53;;;;;;;24.55;3.63;;;;;;;9.98;95.97;102959.94;5100197;28;20101;-67
2023/02/13 10:20:35;;;;;;;26.42;3.45;;;;;;;10.09;95.55;102960.59;5100002;28;20028;-68
2023/02/13 10:23:31;;;;;;;20.85;3.85;;;;;;;10.00;95.17;102966.88;5101742;28;20028;-67
2023/02/13 10:26:00;;;;;;;22.45;3.33;;;;;;;9.89;95.20;102964.31;5100443;28;20024;-68
2023/02/13 10:28:43;;;;;;;23.65;3.80;;;;;;;9.88;95.17;102978.75;5099412;28;20054;-69
2023/02/13 10:31:18;;;;;;;30.55;4.35;;;;;;;9.86;94.84;102976.19;5098520;28;20209;-69
2023/02/13 10:33:50;;;;;;;;;;;;;;;9.94;94.88;102970.13;5099454;28;20032;-68
2023/02/13 10:36:32;;;;;;;27.67;3.83;;;;;;;9.91;94.86;102972.25;5098949;28;20397;-69
2023/02/13 10:39:03;;;;;;;28.83;3.70;;;;;;;9.89;95.01;102980.44;5100247;28;20035;-68
2023/02/13 10:41:50;;;;;;;31.63;3.60;;;;;;;9.67;95.93;102980.69;5101290;28;20028;-68
2023/02/13 10:44:46;;;;;;;33.15;4.10;;;;;;;9.69;95.16;102979.56;5101529;28;20094;-68
2023/02/13 10:47:38;;;;;;;25.83;4.65;;;;;;;9.51;96.39;102975.88;5101577;28;20457;-68
2023/02/13 10:50:21;;;;;;;24.38;4.43;;;;;;;9.41;97.57;102974.03;5097570;28;20063;-68
2023/02/13 10:53:22;;;;;;;29.90;4.18;;;;;;;9.49;97.29;102975.16;5103288;28;20024;-68
2023/02/13 10:55:50;;;;;;;31.73;4.10;;;;;;;9.58;96.49;102982.41;5068490;28;20445;-67
2023/02/13 10:58:52;;;;;;;27.50;4.40;;;;;;;9.52;96.80;102974.91;5101666;28;20107;-68
2023/02/13 11:01:49;;;;;;;25.15;4.03;;;;;;;9.45;96.73;102981.81;5100783;28;20043;-67
2023/02/13 11:04:17;;;;;;;27.13;4.43;;;;;;;9.41;97.15;102984.78;5100746;28;20016;-67
2023/02/13 11:07:16;;;;;;;29.50;4.55;;;;;;;9.54;96.41;102979.16;5099943;28;20051;-68
2023/02/13 11:09:46;;;;;;;26.80;3.72;;;;;;;9.62;95.91;102968.53;5099422;28;20374;-67
2023/02/13 11:12:29;;;;;;;19.13;3.15;;;;;;;9.70;96.32;102980.41;5101054;28;20020;-67
2023/02/13 11:14:59;;;;;;;26.50;4.57;;;;;;;9.77;95.58;102981.59;5098848;28;20063;-68
2023/02/13 11:17:29;;;;;;;28.63;3.85;;;;;;;9.58;96.35;102955.53;5100204;28;20052;-67
2023/02/13 11:19:58;;;;;;;29.58;3.75;;;;;;;9.76;95.24;102983.41;5098059;28;20180;-67
2023/02/13 11:22:37;;;;;;;27.35;4.00;;;;;;;9.83;95.82;102999.81;5097771;28;20020;-67
2023/02/13 11:25:06;;;;;;;28.25;3.72;;;;;;;9.64;95.04;102980.00;5098448;28;20019;-67
2023/02/13 11:27:38;;;;;;;27.83;4.05;;;;;;;9.69;96.02;102979.56;5098283;28;20027;-68
2023/02/13 11:30:25;;;;;;;27.85;3.97;;;;;;;9.65;96.35;102991.59;5102141;28;20103;-68
2023/02/13 11:33:00;;;;;;;30.77;3.58;;;;;;;9.87;95.57;102983.28;5097391;28;20024;-68
2023/02/13 11:35:26;;;;;;;22.10;3.90;;;;;;;9.85;94.74;102985.25;5097606;28;20058;-67
2023/02/13 11:38:11;;;;;;;28.75;4.10;;;;;;;9.85;95.39;102981.72;5097665;28;20036;-68
2023/02/13 11:40:37;;;;;;;31.73;4.32;;;;;;;9.83;95.25;102975.63;5095573;28;20040;-68
2023/02/13 11:43:07;;;;;;;26.52;3.92;;;;;;;9.88;95.69;102976.06;5095633;28;20074;-68
2023/02/13 11:45:33;;;;;;;30.65;4.13;;;;;;;10.05;94.55;102975.34;5095637;28;20028;-68
2023/02/13 11:47:59;;;;;;;34.15;4.60;;;;;;;10.12;94.53;102976.47;5094790;28;20066;-68
2023/02/13 11:50:36;;;;;;;31.05;5.10;;;;;;;10.21;94.29;102979.31;5076237;28;20036;-68
2023/02/13 11:53:06;;;;;;;22.45;3.72;;;;;;;10.19;94.06;102971.34;5096227;28;20032;-68
2023/02/13 11:55:38;;;;;;;24.88;3.50;;;;;;;10.05;94.57;102967.28;5106931;28;20088;-68
2023/02/13 11:58:03;;;;;;;27.08;4.22;;;;;;;10.21;94.13;102982.00;5111339;28;20148;-67
2023/02/13 12:00:38;;;;;;;26.52;4.07;;;;;;;10.17;93.66;102964.44;5111722;28;20041;-68
2023/02/13 12:03:24;;;;;;;29.33;4.47;;;;;;;10.29;93.72;102977.59;5107727;28;20024;-68
2023/02/13 12:06:07;;;;;;;26.10;3.50;;;;;;;10.22;94.15;102979.16;5099643;28;20028;-68
2023/02/13 12:08:36;;;;;;;22.95;4.47;;;;;;;10.27;93.93;102976.06;5099845;28;20059;-68
2023/02/13 12:11:16;;;;;;;32.47;4.00;;;;;;;10.23;93.65;102972.78;5097681;28;20039;-70
2023/02/13 12:13:42;;;;;;;31.25;4.80;;;;;;;10.11;94.47;102969.41;5097373;28;20028;-68
2023/02/13 12:16:27;;;;;;;25.13;3.40;;;;;;;10.21;94.23;102984.69;5099045;28;20875;-68
2023/02/13 12:18:57;;;;;;;27.80;4.30;;;;;;;10.06;95.38;102970.81;5097638;28;20020;-68
2023/02/13 12:21:41;;;;;;;27.45;3.50;;;;;;;10.20;94.50;102985.66;5098252;28;20039;-69